Time;durP1;ratioP1;P1;durP2;ratioP2;P2;SDS_P1;SDS_P2;PMS_P1;PMS_P2;Temp;Humidity;BMP_temperature;BMP_pressure;BME280_temperature;BME280_humidity;BME280_pressure;Samples;Min_cycle;Max_cycle;Signal;HPM_P1;HPM_P2
2023/09/17 00:02:06;;;;;;;0.10;0.10;;;;;;;;;;5110501;28;20299;-70
2023/09/17 00:04:32;;;;;;;0.10;0.10;;;;;;;;;;5106038;28;20204;-69
2023/09/17 00:06:59;;;;;;;0.10;0.10;;;;;;;;;;5110075;28;20259;-69
2023/09/17 00:09:25;;;;;;;0.40;0.40;;;;;;;;;;5106876;28;20239;-70
2023/09/17 00:11:52;;;;;;;2.42;2.33;;;;;;;;;;5109127;28;20247;-70
2023/09/17 00:14:18;;;;;;;0.22;0.22;;;;;;;;;;5107342;28;20273;-70
2023/09/17 00:16:45;;;;;;;1.05;1.05;;;;;;;;;;5107820;28;20299;-69
2023/09/17 00:19:13;;;;;;;1.23;1.23;;;;;;;;;;5108019;28;20235;-70
2023/09/17 00:21:39;;;;;;;0.05;0.05;;;;;;;;;;5107335;28;20304;-70
2023/09/17 00:24:06;;;;;;;0.90;0.85;;;;;;;;;;5108782;28;20300;-71
2023/09/17 00:26:32;;;;;;;0.10;0.10;;;;;;;;;;5106205;28;20302;-70
2023/09/17 00:28:59;;;;;;;0.10;0.10;;;;;;;;;;5109907;28;20271;-70
2023/09/17 00:31:25;;;;;;;0.10;0.10;;;;;;;;;;5105231;28;20314;-70
2023/09/17 00:33:51;;;;;;;0.20;0.20;;;;;;;;;;5110789;28;20275;-71
2023/09/17 00:36:20;;;;;;;0.10;0.10;;;;;;;;;;5103994;28;20312;-71
2023/09/17 00:38:46;;;;;;;0.28;0.28;;;;;;;;;;5111465;28;20234;-71
2023/09/17 00:41:13;;;;;;;0.10;0.10;;;;;;;;;;5102853;28;20259;-71
2023/09/17 00:43:39;;;;;;;0.10;0.10;;;;;;;;;;5112459;28;20206;-71
2023/09/17 00:46:05;;;;;;;0.05;0.05;;;;;;;;;;5102402;28;20312;-71
2023/09/17 00:48:32;;;;;;;1.65;0.80;;;;;;;;;;5113059;28;20551;-70
2023/09/17 00:50:59;;;;;;;0.13;0.13;;;;;;;;;;5101109;28;20248;-70
2023/09/17 00:53:27;;;;;;;0.13;0.13;;;;;;;;;;5113498;28;20240;-71
2023/09/17 00:55:54;;;;;;;0.10;0.10;;;;;;;;;;5100426;28;20258;-71
2023/09/17 00:58:21;;;;;;;0.03;0.03;;;;;;;;;;5113955;28;20228;-71
2023/09/17 01:00:47;;;;;;;0.05;0.05;;;;;;;;;;5099735;28;20567;-72
2023/09/17 01:03:14;;;;;;;0.10;0.10;;;;;;;;;;5115261;28;20246;-71
2023/09/17 01:05:42;;;;;;;0.10;0.10;;;;;;;;;;5098590;28;20318;-71
2023/09/17 01:08:09;;;;;;;0.80;0.80;;;;;;;;;;5115626;28;20221;-71
2023/09/17 01:10:39;;;;;;;0.10;0.10;;;;;;;;;;5097639;28;20246;-71
2023/09/17 01:13:06;;;;;;;1.27;1.27;;;;;;;;;;5116210;28;20235;-71
2023/09/17 01:15:34;;;;;;;0.10;0.10;;;;;;;;;;5097177;28;20240;-71
2023/09/17 01:18:02;;;;;;;0.10;0.10;;;;;;;;;;5116660;28;20228;-71
2023/09/17 01:20:30;;;;;;;0.10;0.10;;;;;;;;;;5096913;28;20247;-71
2023/09/17 01:22:59;;;;;;;7.78;7.13;;;;;;;;;;5116863;28;20219;-71
2023/09/17 01:25:31;;;;;;;0.30;0.30;;;;;;;;;;5096314;28;20388;-71
2023/09/17 01:28:00;;;;;;;0.08;0.08;;;;;;;;;;5117005;28;20236;-70
2023/09/17 01:30:27;;;;;;;0.00;0.00;;;;;;;;;;5096496;28;20205;-70
2023/09/17 01:32:53;;;;;;;0.10;0.10;;;;;;;;;;5117145;28;20193;-71
2023/09/17 01:35:21;;;;;;;0.20;0.20;;;;;;;;;;5095283;28;20499;-71
2023/09/17 01:37:50;;;;;;;0.10;0.10;;;;;;;;;;5117793;28;20223;-71
2023/09/17 01:40:18;;;;;;;0.00;0.00;;;;;;;;;;5094734;28;20204;-71
2023/09/17 01:42:46;;;;;;;0.10;0.10;;;;;;;;;;5118620;28;20382;-71
2023/09/17 01:45:14;;;;;;;0.10;0.10;;;;;;;;;;5094300;28;20210;-71
2023/09/17 01:47:42;;;;;;;0.10;0.10;;;;;;;;;;5119092;28;20198;-70
2023/09/17 01:50:09;;;;;;;0.10;0.10;;;;;;;;;;5097612;28;20203;-71
2023/09/17 01:52:35;;;;;;;0.10;0.10;;;;;;;;;;5119401;28;20224;-71
2023/09/17 01:55:03;;;;;;;0.10;0.10;;;;;;;;;;5103697;28;20211;-70
2023/09/17 01:57:30;;;;;;;0.03;0.03;;;;;;;;;;5109592;28;20408;-71
2023/09/17 01:59:56;;;;;;;0.10;0.10;;;;;;;;;;5103549;28;20252;-71
2023/09/17 02:02:24;;;;;;;0.03;0.03;;;;;;;;;;5109427;28;20250;-70
2023/09/17 02:04:50;;;;;;;0.10;0.10;;;;;;;;;;5103589;28;20239;-71
2023/09/17 02:07:16;;;;;;;0.10;0.10;;;;;;;;;;5113221;28;20248;-71
2023/09/17 02:09:43;;;;;;;0.05;0.05;;;;;;;;;;5107815;28;20214;-71
2023/09/17 02:12:11;;;;;;;0.10;0.10;;;;;;;;;;5113508;28;20255;-71
2023/09/17 02:14:38;;;;;;;1.27;1.27;;;;;;;;;;5107986;28;20398;-70
2023/09/17 02:17:04;;;;;;;1.00;1.00;;;;;;;;;;5112717;28;20297;-71
2023/09/17 02:19:32;;;;;;;0.10;0.10;;;;;;;;;;5107893;28;20230;-70
2023/09/17 02:21:58;;;;;;;0.05;0.05;;;;;;;;;;5111840;28;20262;-71
2023/09/17 02:24:25;;;;;;;0.10;0.10;;;;;;;;;;5108550;28;20223;-71
2023/09/17 02:26:51;;;;;;;0.10;0.10;;;;;;;;;;5111040;28;20255;-71
2023/09/17 02:29:17;;;;;;;0.10;0.10;;;;;;;;;;5109509;28;20236;-71
2023/09/17 02:31:44;;;;;;;0.10;0.10;;;;;;;;;;5110110;28;20242;-71
2023/09/17 02:34:10;;;;;;;0.10;0.10;;;;;;;;;;5110610;28;20451;-71
2023/09/17 02:36:38;;;;;;;0.10;0.10;;;;;;;;;;5109036;28;20539;-71
2023/09/17 02:39:06;;;;;;;0.40;0.40;;;;;;;;;;5111026;28;20231;-71
2023/09/17 02:41:32;;;;;;;0.15;0.15;;;;;;;;;;5108229;28;20248;-71
2023/09/17 02:43:59;;;;;;;0.10;0.10;;;;;;;;;;5111729;28;20237;-71
2023/09/17 02:46:26;;;;;;;0.03;0.03;;;;;;;;;;5107123;28;20239;-71
2023/09/17 02:48:54;;;;;;;0.10;0.10;;;;;;;;;;5112337;28;20200;-71
2023/09/17 02:51:20;;;;;;;0.10;0.10;;;;;;;;;;5106544;28;20247;-71
2023/09/17 02:53:48;;;;;;;0.10;0.10;;;;;;;;;;5113405;28;20446;-71
2023/09/17 02:56:14;;;;;;;0.10;0.10;;;;;;;;;;5105302;28;20267;-71
2023/09/17 02:58:41;;;;;;;0.10;0.10;;;;;;;;;;5114177;28;20469;-71
2023/09/17 03:01:14;;;;;;;0.10;0.10;;;;;;;;;;5104394;28;20239;-71
2023/09/17 03:03:41;;;;;;;0.13;0.13;;;;;;;;;;5114051;28;20234;-71
2023/09/17 03:06:08;;;;;;;0.10;0.10;;;;;;;;;;5104515;28;20250;-70
2023/09/17 03:08:35;;;;;;;0.38;0.38;;;;;;;;;;5114701;28;20200;-70
2023/09/17 03:11:03;;;;;;;0.10;0.10;;;;;;;;;;5103524;28;20252;-71
2023/09/17 03:13:29;;;;;;;0.10;0.10;;;;;;;;;;5115064;28;20453;-71
2023/09/17 03:15:58;;;;;;;0.00;0.00;;;;;;;;;;5102620;28;20589;-71
2023/09/17 03:18:25;;;;;;;0.25;0.25;;;;;;;;;;5115500;28;20417;-71
2023/09/17 03:20:52;;;;;;;0.10;0.10;;;;;;;;;;5102110;28;20317;-71
2023/09/17 03:23:19;;;;;;;0.10;0.10;;;;;;;;;;5116517;28;20526;-71
2023/09/17 03:25:45;;;;;;;0.10;0.10;;;;;;;;;;5101115;28;20237;-71
2023/09/17 03:28:13;;;;;;;0.10;0.10;;;;;;;;;;5117093;28;20276;-71
2023/09/17 03:30:39;;;;;;;0.10;0.10;;;;;;;;;;5100213;28;20262;-71
2023/09/17 03:33:06;;;;;;;0.10;0.10;;;;;;;;;;5118117;28;20455;-71
2023/09/17 03:35:33;;;;;;;0.00;0.00;;;;;;;;;;5099205;28;20242;-71
2023/09/17 03:38:00;;;;;;;0.10;0.10;;;;;;;;;;5118561;28;20227;-71
2023/09/17 03:40:26;;;;;;;0.10;0.10;;;;;;;;;;5098079;28;20233;-71
2023/09/17 03:42:52;;;;;;;0.10;0.10;;;;;;;;;;5119656;28;20503;-71
2023/09/17 03:45:20;;;;;;;0.10;0.10;;;;;;;;;;5097117;28;20234;-71
2023/09/17 03:47:47;;;;;;;0.10;0.10;;;;;;;;;;5120470;28;20435;-71
2023/09/17 03:50:15;;;;;;;0.25;0.25;;;;;;;;;;5096515;28;20523;-71
2023/09/17 03:52:43;;;;;;;0.00;0.00;;;;;;;;;;5120502;28;20272;-71
2023/09/17 03:55:10;;;;;;;0.10;0.10;;;;;;;;;;5105922;28;20531;-71
2023/09/17 03:57:37;;;;;;;0.15;0.15;;;;;;;;;;5094296;28;20279;-71
2023/09/17 04:00:07;;;;;;;0.10;0.10;;;;;;;;;;5105547;28;20256;-71
2023/09/17 04:02:35;;;;;;;0.05;0.05;;;;;;;;;;5111144;28;20241;-71
2023/09/17 04:05:03;;;;;;;0.10;0.10;;;;;;;;;;5105479;28;20273;-71
2023/09/17 04:07:29;;;;;;;0.10;0.10;;;;;;;;;;5111111;28;20240;-71
2023/09/17 04:09:57;;;;;;;0.10;0.10;;;;;;;;;;5105770;28;20230;-71
2023/09/17 04:12:23;;;;;;;0.10;0.10;;;;;;;;;;5111209;28;20308;-71
2023/09/17 04:14:51;;;;;;;0.28;0.28;;;;;;;;;;5105283;28;20203;-71
2023/09/17 04:17:17;;;;;;;5.25;4.10;;;;;;;;;;5111003;28;20244;-71
2023/09/17 04:19:47;;;;;;;0.30;0.30;;;;;;;;;;5105560;28;20268;-71
2023/09/17 04:22:13;;;;;;;0.10;0.10;;;;;;;;;;5110930;28;20254;-70
2023/09/17 04:24:39;;;;;;;0.52;0.50;;;;;;;;;;5105454;28;20223;-71
2023/09/17 04:27:06;;;;;;;0.47;0.47;;;;;;;;;;5110569;28;20451;-71
2023/09/17 04:29:32;;;;;;;0.10;0.10;;;;;;;;;;5105025;28;20521;-71
2023/09/17 04:31:58;;;;;;;0.52;0.52;;;;;;;;;;5109323;28;20240;-71
2023/09/17 04:34:25;;;;;;;0.10;0.10;;;;;;;;;;5106154;28;20203;-71
2023/09/17 04:36:53;;;;;;;0.10;0.10;;;;;;;;;;5108484;28;20257;-71
2023/09/17 04:39:19;;;;;;;0.10;0.10;;;;;;;;;;5106816;28;20265;-71
2023/09/17 04:41:46;;;;;;;0.10;0.10;;;;;;;;;;5107772;28;20238;-71
2023/09/17 04:44:12;;;;;;;0.10;0.10;;;;;;;;;;5107568;28;20240;-71
2023/09/17 04:46:40;;;;;;;1.27;1.27;;;;;;;;;;5106686;28;20294;-71
2023/09/17 04:49:06;;;;;;;0.10;0.10;;;;;;;;;;5108616;28;20500;-71
2023/09/17 04:51:33;;;;;;;0.80;0.80;;;;;;;;;;5105793;28;20237;-71
2023/09/17 04:54:01;;;;;;;0.30;0.30;;;;;;;;;;5109588;28;20206;-70
2023/09/17 04:56:27;;;;;;;0.10;0.10;;;;;;;;;;5104903;28;20518;-71
2023/09/17 04:58:53;;;;;;;0.10;0.10;;;;;;;;;;5110179;28;20290;-71
2023/09/17 05:01:19;;;;;;;0.10;0.10;;;;;;;;;;5103731;28;20238;-71
2023/09/17 05:03:47;;;;;;;0.65;0.65;;;;;;;;;;5110745;28;20203;-71
2023/09/17 05:06:13;;;;;;;0.10;0.10;;;;;;;;;;5102799;28;20237;-70
2023/09/17 05:08:39;;;;;;;0.05;0.05;;;;;;;;;;5111553;28;20234;-71
2023/09/17 05:11:07;;;;;;;0.10;0.10;;;;;;;;;;5101854;28;20246;-71
2023/09/17 05:13:33;;;;;;;0.10;0.10;;;;;;;;;;5112377;28;20274;-71
2023/09/17 05:16:00;;;;;;;0.10;0.10;;;;;;;;;;5101021;28;20475;-70
2023/09/17 05:18:26;;;;;;;0.50;0.50;;;;;;;;;;5113053;28;20203;-71
2023/09/17 05:20:54;;;;;;;0.10;0.10;;;;;;;;;;5099642;28;20260;-71
2023/09/17 05:23:20;;;;;;;0.10;0.10;;;;;;;;;;5114067;28;20202;-71
2023/09/17 05:25:46;;;;;;;0.20;0.20;;;;;;;;;;5099085;28;20260;-71
2023/09/17 05:28:14;;;;;;;0.10;0.10;;;;;;;;;;5115153;28;20212;-71
2023/09/17 05:30:41;;;;;;;0.00;0.00;;;;;;;;;;5098044;28;20265;-71
2023/09/17 05:33:07;;;;;;;0.10;0.10;;;;;;;;;;5115396;28;20197;-71
2023/09/17 05:35:34;;;;;;;0.10;0.10;;;;;;;;;;5097207;28;20261;-71
2023/09/17 05:38:00;;;;;;;0.10;0.10;;;;;;;;;;5116176;28;20191;-70
2023/09/17 05:40:27;;;;;;;0.57;0.57;;;;;;;;;;5095915;28;20290;-71
2023/09/17 05:42:53;;;;;;;0.20;0.20;;;;;;;;;;5117129;28;20193;-70
2023/09/17 05:45:21;;;;;;;0.10;0.10;;;;;;;;;;5095190;28;20387;-71
2023/09/17 05:47:49;;;;;;;1.02;1.02;;;;;;;;;;5118003;28;20191;-71
2023/09/17 05:50:15;;;;;;;0.10;0.10;;;;;;;;;;5094460;28;20267;-71
2023/09/17 05:52:41;;;;;;;0.10;0.10;;;;;;;;;;5119014;28;20414;-71
2023/09/17 05:55:08;;;;;;;0.10;0.10;;;;;;;;;;5101775;28;20233;-73
2023/09/17 05:57:34;;;;;;;0.10;0.10;;;;;;;;;;5118557;28;20246;-71
2023/09/17 06:00:02;;;;;;;0.03;0.03;;;;;;;;;;5103879;28;20261;-71
2023/09/17 06:02:31;;;;;;;0.10;0.10;;;;;;;;;;5109395;28;20237;-71
2023/09/17 06:04:57;;;;;;;0.10;0.10;;;;;;;;;;5103698;28;20270;-71
2023/09/17 06:07:23;;;;;;;0.10;0.10;;;;;;;;;;5109406;28;20257;-71
2023/09/17 06:09:50;;;;;;;0.20;0.20;;;;;;;;;;5103675;28;20198;-71
2023/09/17 06:12:16;;;;;;;0.30;0.30;;;;;;;;;;5109557;28;20238;-71
2023/09/17 06:14:42;;;;;;;0.10;0.10;;;;;;;;;;5103673;28;20239;-71
2023/09/17 06:17:09;;;;;;;0.65;0.65;;;;;;;;;;5109109;28;20240;-71
2023/09/17 06:19:37;;;;;;;0.10;0.10;;;;;;;;;;5103488;28;20261;-70
2023/09/17 06:22:04;;;;;;;0.10;0.10;;;;;;;;;;5108671;28;20246;-71
2023/09/17 06:24:30;;;;;;;0.10;0.10;;;;;;;;;;5104065;28;20260;-71
2023/09/17 06:26:57;;;;;;;0.10;0.10;;;;;;;;;;5107901;28;20249;-70
2023/09/17 06:29:23;;;;;;;0.10;0.10;;;;;;;;;;5104778;28;20254;-71
2023/09/17 06:31:50;;;;;;;0.10;0.10;;;;;;;;;;5106805;28;20304;-71
2023/09/17 06:34:16;;;;;;;0.10;0.10;;;;;;;;;;5106033;28;20249;-71
2023/09/17 06:36:44;;;;;;;0.08;0.08;;;;;;;;;;5105955;28;20452;-71
2023/09/17 06:39:11;;;;;;;0.10;0.10;;;;;;;;;;5106681;28;20268;-70
2023/09/17 06:41:37;;;;;;;0.45;0.45;;;;;;;;;;5105174;28;20255;-70
2023/09/17 06:44:03;;;;;;;0.10;0.10;;;;;;;;;;5107165;28;20314;-71
2023/09/17 06:46:30;;;;;;;0.17;0.17;;;;;;;;;;5104134;28;20414;-70
2023/09/17 06:48:56;;;;;;;0.03;0.03;;;;;;;;;;5108081;28;20483;-71
2023/09/17 06:51:23;;;;;;;0.10;0.10;;;;;;;;;;5103445;28;20275;-71
2023/09/17 06:53:51;;;;;;;0.03;0.03;;;;;;;;;;5113076;28;20234;-71
2023/09/17 06:56:18;;;;;;;0.70;0.70;;;;;;;;;;5106065;28;20240;-71
2023/09/17 06:58:44;;;;;;;0.10;0.10;;;;;;;;;;5113838;28;20239;-70
2023/09/17 07:01:11;;;;;;;0.05;0.05;;;;;;;;;;5104978;28;20301;-78
2023/09/17 07:03:39;;;;;;;0.10;0.10;;;;;;;;;;5114783;28;20214;-74
2023/09/17 07:06:06;;;;;;;0.10;0.10;;;;;;;;;;5104624;28;20456;-74
2023/09/17 07:08:33;;;;;;;0.10;0.10;;;;;;;;;;5115197;28;20503;-74
2023/09/17 07:11:00;;;;;;;0.10;0.10;;;;;;;;;;5103667;28;20303;-77
2023/09/17 07:13:30;;;;;;;0.10;0.10;;;;;;;;;;5115668;28;20205;-76
2023/09/17 07:15:56;;;;;;;0.10;0.10;;;;;;;;;;5103057;28;20464;-75
2023/09/17 07:18:24;;;;;;;0.10;0.10;;;;;;;;;;5116165;28;20221;-76
2023/09/17 07:20:51;;;;;;;0.10;0.10;;;;;;;;;;5102180;28;20243;-75
2023/09/17 07:23:17;;;;;;;4.18;1.27;;;;;;;;;;5116552;28;20214;-75
2023/09/17 07:25:45;;;;;;;0.10;0.10;;;;;;;;;;5101253;28;20245;-75
2023/09/17 07:28:13;;;;;;;0.10;0.10;;;;;;;;;;5117208;28;20213;-76
2023/09/17 07:30:39;;;;;;;0.10;0.10;;;;;;;;;;5100343;28;20255;-74
2023/09/17 07:33:06;;;;;;;0.05;0.05;;;;;;;;;;5118154;28;20252;-75
2023/09/17 07:35:32;;;;;;;0.10;0.10;;;;;;;;;;5099291;28;20261;-75
2023/09/17 07:37:59;;;;;;;0.00;0.00;;;;;;;;;;5118667;28;20254;-75
2023/09/17 07:40:25;;;;;;;0.10;0.10;;;;;;;;;;5098010;28;20233;-76
2023/09/17 07:42:58;;;;;;;0.00;0.00;;;;;;;;;;5119984;28;20193;-75
2023/09/17 07:45:26;;;;;;;0.08;0.08;;;;;;;;;;5098276;28;20532;-76
2023/09/17 07:47:52;;;;;;;0.10;0.10;;;;;;;;;;5119903;28;20232;-76
2023/09/17 07:50:18;;;;;;;0.10;0.10;;;;;;;;;;5097284;28;20208;-75
2023/09/17 07:52:46;;;;;;;0.05;0.05;;;;;;;;;;5120914;28;20383;-78
2023/09/17 07:55:12;;;;;;;0.10;0.10;;;;;;;;;;5095851;28;20239;-76
2023/09/17 07:57:41;;;;;;;0.03;0.03;;;;;;;;;;5121563;28;20240;-77
2023/09/17 08:00:08;;;;;;;0.08;0.08;;;;;;;;;;5103186;28;20230;-76
2023/09/17 08:02:36;;;;;;;0.00;0.00;;;;;;;;;;5121485;28;20255;-77
2023/09/17 08:05:02;;;;;;;0.00;0.00;;;;;;;;;;5105502;28;20232;-78
2023/09/17 08:07:29;;;;;;;0.10;0.10;;;;;;;;;;5111889;28;20239;-77
2023/09/17 08:09:55;;;;;;;0.30;0.30;;;;;;;;;;5106017;28;20260;-76
2023/09/17 08:12:22;;;;;;;0.10;0.10;;;;;;;;;;5111510;28;20252;-74
2023/09/17 08:14:48;;;;;;;0.10;0.10;;;;;;;;;;5105917;28;20212;-74
2023/09/17 08:17:14;;;;;;;0.03;0.03;;;;;;;;;;5111178;28;20249;-74
2023/09/17 08:19:42;;;;;;;0.08;0.08;;;;;;;;;;5105421;28;20237;-75
2023/09/17 08:22:08;;;;;;;0.10;0.10;;;;;;;;;;5111239;28;20316;-75
2023/09/17 08:24:35;;;;;;;0.00;0.00;;;;;;;;;;5105386;28;20250;-71
2023/09/17 08:27:04;;;;;;;0.00;0.00;;;;;;;;;;5110321;28;20266;-73
2023/09/17 08:29:30;;;;;;;0.00;0.00;;;;;;;;;;5105992;28;20502;-71
2023/09/17 08:31:58;;;;;;;0.10;0.10;;;;;;;;;;5108760;28;20301;-74
2023/09/17 08:34:24;;;;;;;0.00;0.00;;;;;;;;;;5106799;28;20211;-75
2023/09/17 08:36:53;;;;;;;0.30;0.30;;;;;;;;;;5108591;28;20301;-74
2023/09/17 08:39:20;;;;;;;0.10;0.10;;;;;;;;;;5107051;28;20199;-74
2023/09/17 08:41:46;;;;;;;0.10;0.10;;;;;;;;;;5107793;28;20240;-74
2023/09/17 08:44:13;;;;;;;0.00;0.00;;;;;;;;;;5107707;28;20200;-73
2023/09/17 08:46:40;;;;;;;0.00;0.00;;;;;;;;;;5106942;28;20241;-73
2023/09/17 08:49:07;;;;;;;0.10;0.10;;;;;;;;;;5108758;28;20242;-77
2023/09/17 08:51:35;;;;;;;0.03;0.03;;;;;;;;;;5105973;28;20244;-72
2023/09/17 08:54:05;;;;;;;0.00;0.00;;;;;;;;;;5109094;28;20202;-72
2023/09/17 08:56:32;;;;;;;0.10;0.10;;;;;;;;;;5105884;28;20258;-73
2023/09/17 08:59:02;;;;;;;0.13;0.13;;;;;;;;;;5109336;28;20210;-73
2023/09/17 09:01:31;;;;;;;0.00;0.00;;;;;;;;;;5105054;28;20264;-72
2023/09/17 09:03:58;;;;;;;0.05;0.05;;;;;;;;;;5109377;28;20213;-73
2023/09/17 09:06:25;;;;;;;0.08;0.08;;;;;;;;;;5104566;28;20254;-72
2023/09/17 09:08:54;;;;;;;0.00;0.00;;;;;;;;;;5110338;28;20202;-72
2023/09/17 09:11:22;;;;;;;0.10;0.10;;;;;;;;;;5104039;28;20242;-70
2023/09/17 09:13:51;;;;;;;0.08;0.08;;;;;;;;;;5110417;28;20558;-72
2023/09/17 09:16:19;;;;;;;0.03;0.03;;;;;;;;;;5103035;28;20446;-74
2023/09/17 09:18:46;;;;;;;0.00;0.00;;;;;;;;;;5111014;28;20559;-76
2023/09/17 09:21:14;;;;;;;0.00;0.00;;;;;;;;;;5100659;28;20460;-77
2023/09/17 09:23:42;;;;;;;0.20;0.20;;;;;;;;;;5111349;28;20231;-75
2023/09/17 09:26:10;;;;;;;0.00;0.00;;;;;;;;;;5101624;28;20246;-75
2023/09/17 09:28:38;;;;;;;0.20;0.20;;;;;;;;;;5112215;28;20273;-70
2023/09/17 09:31:05;;;;;;;0.00;0.00;;;;;;;;;;5101491;28;20313;-73
2023/09/17 09:33:32;;;;;;;0.10;0.10;;;;;;;;;;5112693;28;20424;-75
2023/09/17 09:36:00;;;;;;;0.00;0.00;;;;;;;;;;5100767;28;20237;-74
2023/09/17 09:38:26;;;;;;;0.00;0.00;;;;;;;;;;5112988;28;20207;-74
2023/09/17 09:40:52;;;;;;;0.00;0.00;;;;;;;;;;5099753;28;20257;-73
2023/09/17 09:43:30;;;;;;;0.00;0.00;;;;;;;;;;5114218;28;20233;-73
2023/09/17 09:46:00;;;;;;;0.00;0.00;;;;;;;;;;5099738;28;20245;-73
2023/09/17 09:48:28;;;;;;;0.20;0.20;;;;;;;;;;5113352;28;20195;-74
2023/09/17 09:50:55;;;;;;;0.10;0.10;;;;;;;;;;5099961;28;20363;-75
2023/09/17 09:53:21;;;;;;;0.00;0.00;;;;;;;;;;5113405;28;20203;-74
2023/09/17 09:55:48;;;;;;;0.00;0.00;;;;;;;;;;5098923;28;20571;-75
2023/09/17 09:58:15;;;;;;;0.00;0.00;;;;;;;;;;5114425;28;20451;-74
2023/09/17 10:00:44;;;;;;;0.03;0.03;;;;;;;;;;5097707;28;20261;-73
2023/09/17 10:03:12;;;;;;;0.00;0.00;;;;;;;;;;5114912;28;20529;-74
2023/09/17 10:05:40;;;;;;;0.10;0.10;;;;;;;;;;5097331;28;20241;-74
2023/09/17 10:08:07;;;;;;;0.00;0.00;;;;;;;;;;5115169;28;20198;-73
2023/09/17 10:10:37;;;;;;;0.10;0.10;;;;;;;;;;5106761;28;20533;-73
2023/09/17 10:13:06;;;;;;;0.00;0.00;;;;;;;;;;5104104;28;20187;-77
2023/09/17 10:15:35;;;;;;;0.10;0.10;;;;;;;;;;5095519;28;20245;-77
2023/09/17 10:18:04;;;;;;;0.00;0.00;;;;;;;;;;5116133;28;20217;-78
2023/09/17 10:20:33;;;;;;;0.00;0.00;;;;;;;;;;5090481;28;20246;-79
2023/09/17 10:23:06;;;;;;;0.00;0.00;;;;;;;;;;5103651;28;20202;-78
2023/09/17 10:25:38;;;;;;;0.00;0.00;;;;;;;;;;5095613;28;20249;-78
2023/09/17 10:28:05;;;;;;;0.00;0.00;;;;;;;;;;5118855;28;20230;-79
2023/09/17 10:30:38;;;;;;;0.00;0.00;;;;;;;;;;5100763;28;20238;-79
2023/09/17 10:33:07;;;;;;;0.00;0.00;;;;;;;;;;5119583;28;20212;-78
2023/09/17 10:35:41;;;;;;;0.00;0.00;;;;;;;;;;5100061;28;20261;-77
2023/09/17 10:38:13;;;;;;;0.00;0.00;;;;;;;;;;5119130;28;20208;-76
2023/09/17 10:40:39;;;;;;;0.00;0.00;;;;;;;;;;5092426;28;20243;-77
2023/09/17 10:43:08;;;;;;;0.00;0.00;;;;;;;;;;5084991;28;20200;-78
2023/09/17 10:45:37;;;;;;;0.00;0.00;;;;;;;;;;5074356;28;20239;-86
2023/09/17 10:48:05;;;;;;;0.00;0.00;;;;;;;;;;5085558;28;20219;-87
2023/09/17 10:50:36;;;;;;;0.00;0.00;;;;;;;;;;5075518;28;20243;-84
2023/09/17 10:53:06;;;;;;;0.10;0.10;;;;;;;;;;5085572;28;20199;-87
2023/09/17 10:55:40;;;;;;;0.00;0.00;;;;;;;;;;5075878;28;20239;-88
2023/09/17 10:58:13;;;;;;;0.00;0.00;;;;;;;;;;5085467;28;20285;-82
2023/09/17 11:00:44;;;;;;;0.00;0.00;;;;;;;;;;5073866;28;20277;-79
2023/09/17 11:03:16;;;;;;;0.00;0.00;;;;;;;;;;5084650;28;20207;-79
2023/09/17 11:05:55;;;;;;;0.00;0.00;;;;;;;;;;5073434;28;20575;-79
2023/09/17 11:08:30;;;;;;;0.00;0.00;;;;;;;;;;5105806;28;20202;-78
2023/09/17 11:11:17;;;;;;;0.00;0.00;;;;;;;;;;5102112;28;20338;-79
2023/09/17 11:13:46;;;;;;;0.00;0.00;;;;;;;;;;5101876;28;20453;-76
2023/09/17 11:16:17;;;;;;;0.35;0.35;;;;;;;;;;5104823;28;20279;-78
2023/09/17 11:18:45;;;;;;;0.00;0.00;;;;;;;;;;5113353;28;20178;-77
2023/09/17 11:21:12;;;;;;;0.00;0.00;;;;;;;;;;5104889;28;20233;-76
2023/09/17 11:23:46;;;;;;;0.00;0.00;;;;;;;;;;5113542;28;20222;-78
2023/09/17 11:26:13;;;;;;;0.00;0.00;;;;;;;;;;5104748;28;20467;-78
2023/09/17 11:28:42;;;;;;;0.00;0.00;;;;;;;;;;5113684;28;20379;-80
2023/09/17 11:31:12;;;;;;;0.00;0.00;;;;;;;;;;5102582;28;20305;-75
2023/09/17 11:33:39;;;;;;;0.00;0.00;;;;;;;;;;5113803;28;20198;-78
2023/09/17 11:36:09;;;;;;;0.00;0.00;;;;;;;;;;5103933;28;20441;-78
2023/09/17 11:38:35;;;;;;;0.00;0.00;;;;;;;;;;5113861;28;20203;-78
2023/09/17 11:41:09;;;;;;;0.00;0.00;;;;;;;;;;5103185;28;20256;-78
2023/09/17 11:43:37;;;;;;;0.00;0.00;;;;;;;;;;5113997;28;20207;-78
2023/09/17 11:46:05;;;;;;;0.00;0.00;;;;;;;;;;5103393;28;20281;-78
2023/09/17 11:48:32;;;;;;;0.00;0.00;;;;;;;;;;5114252;28;20242;-77
2023/09/17 11:51:17;;;;;;;0.05;0.05;;;;;;;;;;5101787;28;20276;-77
2023/09/17 11:53:52;;;;;;;0.00;0.00;;;;;;;;;;5112583;28;20195;-76
2023/09/17 11:56:22;;;;;;;0.00;0.00;;;;;;;;;;5104516;28;20271;-76
2023/09/17 11:58:59;;;;;;;0.00;0.00;;;;;;;;;;5112117;28;20218;-76
2023/09/17 12:01:28;;;;;;;0.00;0.00;;;;;;;;;;5105575;28;20238;-76
2023/09/17 12:03:55;;;;;;;0.00;0.00;;;;;;;;;;5111373;28;20499;-76
2023/09/17 12:06:21;;;;;;;0.00;0.00;;;;;;;;;;5105135;28;20516;-76
2023/09/17 12:08:48;;;;;;;0.00;0.00;;;;;;;;;;5111679;28;20207;-76
2023/09/17 12:11:21;;;;;;;0.00;0.00;;;;;;;;;;5103723;28;20239;-76
2023/09/17 12:13:53;;;;;;;0.00;0.00;;;;;;;;;;5112158;28;20502;-76
2023/09/17 12:16:26;;;;;;;0.00;0.00;;;;;;;;;;5104622;28;20437;-77
2023/09/17 12:18:57;;;;;;;0.00;0.00;;;;;;;;;;5111072;28;20220;-77
2023/09/17 12:21:25;;;;;;;0.00;0.00;;;;;;;;;;5105382;28;20299;-77
2023/09/17 12:23:58;;;;;;;0.00;0.00;;;;;;;;;;5110908;28;20285;-76
2023/09/17 12:26:26;;;;;;;0.00;0.00;;;;;;;;;;5105118;28;20356;-76
2023/09/17 12:28:54;;;;;;;0.00;0.00;;;;;;;;;;5110726;28;20206;-77
2023/09/17 12:31:20;;;;;;;0.00;0.00;;;;;;;;;;5104444;28;20577;-76
2023/09/17 12:33:47;;;;;;;0.00;0.00;;;;;;;;;;5111284;28;20241;-76
2023/09/17 12:36:15;;;;;;;0.00;0.00;;;;;;;;;;5103402;28;20245;-77
2023/09/17 12:38:41;;;;;;;0.00;0.00;;;;;;;;;;5112296;28;20368;-77
2023/09/17 12:41:09;;;;;;;0.00;0.00;;;;;;;;;;5102903;28;20238;-76
2023/09/17 12:43:37;;;;;;;0.00;0.00;;;;;;;;;;5113005;28;20248;-76
2023/09/17 12:46:06;;;;;;;0.00;0.00;;;;;;;;;;5102030;28;20287;-76
2023/09/17 12:48:33;;;;;;;0.00;0.00;;;;;;;;;;5113159;28;20214;-77
2023/09/17 12:51:00;;;;;;;0.00;0.00;;;;;;;;;;5100925;28;20233;-77
2023/09/17 12:53:26;;;;;;;0.00;0.00;;;;;;;;;;5113946;28;20206;-76
2023/09/17 12:55:55;;;;;;;0.00;0.00;;;;;;;;;;5099999;28;20249;-77
2023/09/17 12:58:21;;;;;;;0.00;0.00;;;;;;;;;;5114433;28;20432;-77
2023/09/17 13:00:48;;;;;;;0.00;0.00;;;;;;;;;;5099489;28;20237;-77
2023/09/17 13:03:18;;;;;;;0.00;0.00;;;;;;;;;;5115478;28;20206;-77
2023/09/17 13:05:47;;;;;;;0.00;0.00;;;;;;;;;;5099260;28;20238;-77
2023/09/17 13:08:14;;;;;;;0.00;0.00;;;;;;;;;;5115171;28;20206;-77
2023/09/17 13:10:41;;;;;;;0.00;0.00;;;;;;;;;;5098664;28;20253;-76
2023/09/17 13:13:09;;;;;;;0.00;0.00;;;;;;;;;;5116032;28;20222;-76
2023/09/17 13:15:36;;;;;;;0.00;0.00;;;;;;;;;;5098047;28;20316;-77
2023/09/17 13:18:06;;;;;;;0.00;0.00;;;;;;;;;;5116313;28;20210;-77
2023/09/17 13:20:36;;;;;;;0.00;0.00;;;;;;;;;;5097792;28;20246;-77
2023/09/17 13:23:03;;;;;;;0.00;0.00;;;;;;;;;;5116643;28;20230;-76
2023/09/17 13:25:29;;;;;;;0.00;0.00;;;;;;;;;;5097057;28;20243;-77
2023/09/17 13:27:57;;;;;;;0.00;0.00;;;;;;;;;;5117486;28;20206;-76
2023/09/17 13:30:23;;;;;;;0.00;0.00;;;;;;;;;;5096326;28;20211;-77
2023/09/17 13:32:50;;;;;;;0.00;0.00;;;;;;;;;;5117816;28;20546;-76
2023/09/17 13:35:19;;;;;;;0.00;0.00;;;;;;;;;;5095292;28;20214;-76
2023/09/17 13:37:47;;;;;;;0.00;0.00;;;;;;;;;;5118296;28;20273;-76
2023/09/17 13:40:16;;;;;;;0.00;0.00;;;;;;;;;;5094764;28;20248;-76
2023/09/17 13:42:42;;;;;;;0.00;0.00;;;;;;;;;;5118744;28;20198;-76
2023/09/17 13:45:20;;;;;;;0.00;0.00;;;;;;;;;;5099119;28;20499;-76
2023/09/17 13:47:48;;;;;;;0.00;0.00;;;;;;;;;;5104167;28;20225;-77
2023/09/17 13:50:15;;;;;;;0.00;0.00;;;;;;;;;;5094492;28;20241;-77
2023/09/17 13:52:41;;;;;;;0.00;0.00;;;;;;;;;;5119043;28;20214;-77
2023/09/17 13:55:10;;;;;;;0.00;0.00;;;;;;;;;;5102209;28;20203;-78
2023/09/17 13:57:36;;;;;;;0.00;0.00;;;;;;;;;;5119712;28;20278;-77
2023/09/17 14:00:07;;;;;;;0.00;0.00;;;;;;;;;;5104064;28;20238;-76
2023/09/17 14:02:38;;;;;;;0.00;0.00;;;;;;;;;;5091666;28;20227;-76
2023/09/17 14:05:07;;;;;;;0.20;0.20;;;;;;;;;;5103608;28;20433;-76
2023/09/17 14:07:34;;;;;;;0.00;0.00;;;;;;;;;;5092117;28;20210;-76
2023/09/17 14:10:01;;;;;;;0.00;0.00;;;;;;;;;;5103608;28;20241;-76
2023/09/17 14:12:30;;;;;;;0.00;0.00;;;;;;;;;;5109454;28;20241;-76
2023/09/17 14:15:03;;;;;;;0.00;0.00;;;;;;;;;;5103628;28;20256;-75
2023/09/17 14:17:33;;;;;;;0.00;0.00;;;;;;;;;;5108346;28;20276;-76
2023/09/17 14:20:00;;;;;;;0.00;0.00;;;;;;;;;;5103560;28;20202;-75
2023/09/17 14:22:31;;;;;;;0.00;0.00;;;;;;;;;;5109531;28;20253;-79
2023/09/17 14:25:07;;;;;;;;;;;;;;;;;;;;;
2023/09/17 14:27:35;;;;;;;0.00;0.00;;;;;;;;;;5095322;28;20201;-77
2023/09/17 14:30:10;;;;;;;0.00;0.00;;;;;;;;;;5123910;28;20202;-77
2023/09/17 14:32:37;;;;;;;0.00;0.00;;;;;;;;;;5094683;28;20412;-78
2023/09/17 14:35:06;;;;;;;0.00;0.00;;;;;;;;;;5123872;28;20247;-77
2023/09/17 14:37:34;;;;;;;0.00;0.00;;;;;;;;;;5095324;28;20237;-78
2023/09/17 14:40:00;;;;;;;0.00;0.00;;;;;;;;;;5123707;28;20243;-78
2023/09/17 14:42:27;;;;;;;0.00;0.00;;;;;;;;;;5112436;28;20296;-77
2023/09/17 14:44:57;;;;;;;0.00;0.00;;;;;;;;;;5123371;28;20405;-77
2023/09/17 14:47:25;;;;;;;0.00;0.00;;;;;;;;;;5112251;28;20261;-77